Latest Weather Observations for Lucas Heights

IDN60901

Issued at 1:32 am EDT Sunday 11 December 2016 (issued every 10 minutes, with the page automatically refreshed every 10 minutes)

About weather observations | Map of Sydney area stations | Latest observations for Sydney area | Other Formats
Station Details ID: 066023 Name: LUCAS HEIGHTS AWS Lat: -34.05 Lon: 150.98 Height: 140.0 m
Data from the previous 72 hours. | See also: Recent months for locations in New South Wales
Date/Time
EDT
Temp
°C
App
Temp
°C
Dew
Point
°C
Rel
Hum
%
Delta-T
°C
Wind Press
QNH
hPa
Press
MSL
hPa
Rain since
9am
mm
Dir  Spd
km/h
Gust
km/h
Spd
kts
Gust
kts
11/01:15am 18.9 18.8 14.9 77 2.3 NE 9 17 5 9 1021.0 - 0.0
11/01:00am 19.1 17.9 15.0 77 2.4 NE 15 22 8 12 1021.3 - 0.0
11/12:45am 19.2 18.3 14.9 76 2.5 NNE 13 24 7 13 1021.4 - 0.0
11/12:30am 19.3 18.8 14.8 75 2.6 NE 11 15 6 8 1021.4 - 0.0
11/12:15am 19.3 19.1 14.7 74 2.7 NNE 9 19 5 10 1021.5 - 0.0
11/12:00am 19.2 18.2 14.7 75 2.6 NNE 13 20 7 11 1021.6 - 0.0
 
Date/Time
EDT
Temp
°C
App
Temp
°C
Dew
Point
°C
Rel
Hum
%
Delta-T
°C
Wind Press
QNH
hPa
Press
MSL
hPa
Rain since
9am
mm
Dir  Spd
km/h
Gust
km/h
Spd
kts
Gust
kts
10/11:45pm 19.2 18.6 14.6 74 2.7 NNE 11 19 6 10 1021.6 - 0.0
10/11:30pm 19.2 18.6 14.5 74 2.7 NNE 11 17 6 9 1021.6 - 0.0
10/11:15pm 19.2 17.4 14.4 74 2.8 NNE 17 28 9 15 1021.6 - 0.0
10/11:00pm 19.2 17.8 14.4 74 2.8 NNE 15 24 8 13 1021.6 - 0.0
10/10:45pm 19.3 17.4 14.3 73 2.9 NNE 17 24 9 13 1021.6 - 0.0
10/10:30pm 19.3 17.8 14.2 72 3.0 NNE 15 22 8 12 1021.6 - 0.0
10/10:15pm 19.4 17.9 14.2 72 3.0 NNE 15 22 8 12 1021.6 - 0.0
10/10:00pm 19.3 18.2 14.3 73 2.9 NNE 13 24 7 13 1021.5 - 0.0
10/09:45pm 19.4 18.7 14.2 72 3.0 NNE 11 19 6 10 1021.4 - 0.0
10/09:30pm 19.4 17.9 14.2 72 3.0 NNE 15 22 8 12 1021.4 - 0.0
10/09:15pm 19.4 17.9 14.1 71 3.1 NNE 15 26 8 14 1021.2 - 0.0
10/09:00pm 19.4 17.5 14.1 71 3.1 NE 17 24 9 13 1021.1 - 0.0
10/08:45pm 19.4 17.5 14.1 71 3.1 NE 17 26 9 14 1020.8 - 0.0
10/08:30pm 19.5 17.2 14.2 71 3.1 NE 19 26 10 14 1020.7 - 0.0
10/08:15pm 19.5 17.6 14.2 71 3.1 NE 17 26 9 14 1020.5 - 0.0
10/08:00pm 19.5 17.0 14.2 71 3.1 NE 20 30 11 16 1020.1 - 0.0
10/07:45pm 19.6 17.1 14.2 71 3.1 NE 20 32 11 17 1019.9 - 0.0
10/07:30pm 19.9 17.6 14.2 69 3.3 ENE 19 26 10 14 1019.7 - 0.0
10/07:15pm 20.0 17.5 14.1 69 3.4 NE 20 30 11 16 1019.4 - 0.0
10/07:00pm 20.3 17.4 14.0 67 3.7 NE 22 32 12 17 1019.2 - 0.0
10/06:45pm 20.7 17.8 14.0 65 3.9 ENE 22 30 12 16 1019.0 - 0.0
10/06:30pm 20.9 18.0 14.0 64 4.0 ENE 22 32 12 17 1018.9 - 0.0
10/06:15pm 21.2 18.7 14.0 63 4.2 ENE 20 32 11 17 1018.8 - 0.0
10/06:00pm 21.5 18.6 14.1 62 4.3 ENE 22 30 12 16 1018.8 - 0.0
10/05:45pm 21.5 18.7 14.2 63 4.3 ENE 22 33 12 18 1018.8 - 0.0
10/05:30pm 21.7 18.5 14.3 62 4.4 ENE 24 32 13 17 1018.7 - 0.0
10/05:15pm 21.7 18.5 14.3 62 4.4 ENE 24 35 13 19 1018.8 - 0.0
10/05:00pm 21.8 18.5 14.1 61 4.5 NE 24 37 13 20 1018.9 - 0.0
10/04:45pm 21.9 19.0 14.1 61 4.6 NE 22 32 12 17 1018.9 - 0.0
10/04:30pm 22.4 19.6 14.2 59 4.8 ENE 22 32 12 17 1019.0 - 0.0
10/04:15pm 22.5 19.7 14.2 59 4.9 ENE 22 32 12 17 1019.2 - 0.0
10/04:00pm 22.6 19.4 14.2 59 5.0 NE 24 35 13 19 1019.3 - 0.0
10/03:45pm 22.5 19.7 14.3 59 4.8 NE 22 32 12 17 1019.4 - 0.0
10/03:30pm 22.5 20.1 14.3 59 4.8 ENE 20 30 11 16 1019.7 - 0.0
10/03:15pm 22.5 20.1 14.3 59 4.8 ENE 20 32 11 17 1019.9 - 0.0
10/03:00pm 21.9 19.0 14.0 61 4.6 ENE 22 32 12 17 1020.2 - 0.0
10/02:45pm 21.5 18.6 14.0 62 4.4 E 22 32 12 17 1020.2 - 0.0
10/02:30pm 22.0 19.5 14.0 60 4.7 ENE 20 35 11 19 1020.3 - 0.0
10/02:15pm 22.0 19.9 13.6 59 4.9 ENE 17 30 9 16 1020.5 - 0.0
10/02:00pm 22.8 20.3 13.6 56 5.4 NE 19 28 10 15 1020.6 - 0.0
10/01:45pm 23.0 21.0 13.9 56 5.3 NE 17 28 9 15 1020.7 - 0.0
10/01:30pm 22.6 20.2 13.8 57 5.2 NE 19 30 10 16 1020.8 - 0.0
10/01:15pm 22.1 20.0 13.5 58 5.0 NE 17 24 9 13 1021.0 - 0.0
10/01:00pm 22.5 19.9 13.9 58 5.0 NE 20 32 11 17 1021.0 - 0.0
10/12:45pm 22.3 19.6 13.5 57 5.1 ENE 20 30 11 16 1021.1 - 0.0
10/12:30pm 22.8 20.4 13.8 57 5.3 ENE 19 32 10 17 1021.1 - 0.0
10/12:15pm 22.1 20.2 13.0 56 5.2 NE 15 28 8 15 1021.2 - 0.0
10/12:00pm 23.0 21.7 13.7 55 5.4 NE 13 24 7 13 1021.4 - 0.0
10/11:45am 22.1 20.4 13.5 58 5.0 NE 15 26 8 14 1021.6 - 0.0
10/11:30am 20.9 20.2 13.2 61 4.4 ENE 9 26 5 14 1021.8 - 0.0
10/11:15am 20.4 19.2 12.7 61 4.4 NE 11 19 6 10 1021.8 - 0.0
10/11:00am 20.7 19.7 12.4 59 4.7 NNE 9 19 5 10 1021.9 - 0.0
10/10:45am 21.0 20.6 13.1 60 4.5 ENE 7 15 4 8 1022.0 - 0.0
10/10:30am 19.9 19.6 12.6 63 4.1 NE 6 9 3 5 1022.1 - 0.0
10/10:15am 20.1 19.9 13.0 63 4.1 NNE 6 7 3 4 1022.2 - 0.0
10/10:00am 19.3 19.3 12.5 64 3.8 N 4 7 2 4 1022.2 - 0.0
10/09:45am 19.9 19.4 12.7 63 4.1 NE 7 17 4 9 1022.2 - 0.0
10/09:30am 20.3 20.1 12.9 62 4.2 NE 6 11 3 6 1022.2 - 0.0
10/09:15am 19.9 19.5 13.1 65 3.9 NE 7 11 4 6 1022.2 - 0.0
10/09:00am 19.3 19.1 13.0 67 3.6 ENE 6 11 3 6 1022.1 - 0.0
10/08:45am 18.4 18.7 13.3 72 2.9 SE 4 9 2 5 1022.1 - 0.0
10/08:30am 17.9 17.5 13.0 73 2.8 SE 7 11 4 6 1022.1 - 0.0
10/08:15am 18.5 18.2 13.2 71 3.0 SE 7 11 4 6 1022.0 - 0.0
10/08:00am 18.1 18.0 13.4 74 2.7 SE 6 11 3 6 1021.8 - 0.0
10/07:45am 16.8 17.0 13.1 79 2.1 SSE 4 7 2 4 1021.7 - 0.0
10/07:30am 15.5 14.9 12.4 82 1.7 SSE 7 9 4 5 1021.6 - 0.0
10/07:15am 15.6 14.6 12.3 81 1.8 SSE 9 11 5 6 1021.3 - 0.0
10/07:00am 15.3 14.4 12.5 83 1.5 SSE 9 11 5 6 1021.0 - 0.0
10/06:45am 14.4 12.9 11.9 85 1.4 SSE 11 13 6 7 1020.8 - 0.0
10/06:30am 13.9 12.8 11.8 87 1.1 SSE 9 11 5 6 1020.6 - 0.0
10/06:15am 13.3 12.0 11.3 88 1.1 SSE 9 11 5 6 1020.4 - 0.0
10/06:00am 13.1 11.8 11.1 88 1.1 SSE 9 11 5 6 1020.2 - 0.0
10/05:45am 13.0 11.6 11.0 88 1.1 SE 9 11 5 6 1020.0 - 0.0
10/05:30am 12.9 11.1 10.8 87 1.1 SSE 11 11 6 6 1019.9 - 0.0
10/05:15am 12.7 10.8 10.5 86 1.1 SSE 11 13 6 7 1019.7 - 0.0
10/05:00am 12.9 10.9 10.3 84 1.4 SSE 11 11 6 6 1019.6 - 0.0
10/04:45am 13.5 11.7 10.8 84 1.4 SSE 11 13 6 7 1019.5 - 0.0
10/04:30am 13.5 12.0 10.7 83 1.5 SSE 9 11 5 6 1019.3 - 0.0
10/04:15am 13.5 12.0 10.7 83 1.5 SSE 9 11 5 6 1019.3 - 0.0
10/04:00am 13.5 12.3 10.4 81 1.6 SSE 7 11 4 6 1019.3 - 0.0
10/03:45am 14.1 13.0 10.8 80 1.7 SE 7 7 4 4 1019.1 - 0.0
10/03:30am 14.0 13.0 10.9 81 1.6 SE 7 7 4 4 1019.0 - 0.0
10/03:15am 13.6 12.7 10.7 82 1.5 SSE 6 7 3 4 1018.9 - 0.0
10/03:00am 13.6 12.1 10.6 82 1.6 SSE 9 11 5 6 1018.8 - 0.0
10/02:45am 13.7 12.2 10.6 81 1.6 SSE 9 11 5 6 1018.9 - 0.0
10/02:30am 13.9 12.0 10.6 80 1.7 S 11 13 6 7 1018.8 - 0.0
10/02:15am 14.1 12.3 10.7 80 1.8 S 11 11 6 6 1018.9 - 0.0
10/02:00am 13.9 12.4 10.6 80 1.7 S 9 11 5 6 1018.8 - 0.0
10/01:45am 13.9 12.8 10.5 80 1.8 S 7 11 4 6 1018.8 - 0.0
10/01:30am 14.3 12.8 10.6 78 2.0 S 9 11 5 6 1018.8 - 0.0
10/01:15am 14.7 12.8 10.4 75 2.3 S 11 11 6 6 1018.8 - 0.0
10/01:00am 15.2 14.1 10.8 75 2.3 S 7 11 4 6 1019.0 - 0.0
10/12:45am 15.4 14.6 11.0 75 2.4 S 6 7 3 4 1019.0 - 0.0
10/12:30am 15.1 14.3 11.0 76 2.2 SSW 6 7 3 4 1019.0 - 0.0
10/12:15am 14.8 14.3 10.9 77 2.1 S 4 6 2 3 1019.0 - 0.0
10/12:00am 14.6 14.1 10.7 77 2.1 S 4 6 2 3 1018.9 - 0.0
 
Date/Time
EDT
Temp
°C
App
Temp
°C
Dew
Point
°C
Rel
Hum
%
Delta-T
°C
Wind Press
QNH
hPa
Press
MSL
hPa
Rain since
9am
mm
Dir  Spd
km/h
Gust
km/h
Spd
kts
Gust
kts
09/11:45pm 14.9 14.4 10.9 77 2.1 S 4 4 2 2 1018.7 - 0.0
09/11:30pm 15.0 14.1 10.8 76 2.2 SSE 6 9 3 5 1018.6 - 0.0
09/11:15pm 15.4 14.4 11.0 75 2.4 SSE 7 9 4 5 1018.4 - 0.0
09/11:00pm 15.8 14.4 11.0 73 2.6 SSE 9 11 5 6 1018.3 - 0.0
09/10:45pm 16.3 15.4 11.2 72 2.8 SE 7 11 4 6 1018.1 - 0.0
09/10:30pm 16.6 15.3 11.3 71 2.9 SE 9 13 5 7 1018.0 - 0.0
09/10:15pm 16.9 14.9 11.4 70 3.0 ESE 13 20 7 11 1017.8 - 0.0
09/10:00pm 16.9 14.8 11.3 69 3.0 SE 13 19 7 10 1017.5 - 0.0
09/09:45pm 17.0 14.9 11.0 68 3.2 ESE 13 20 7 11 1017.2 - 0.0
09/09:30pm 17.2 15.0 10.8 66 3.5 ESE 13 19 7 10 1016.9 - 0.0
09/09:15pm 17.2 15.4 10.9 66 3.4 SE 11 20 6 11 1016.7 - 0.0
09/09:00pm 17.3 14.7 10.6 64 3.6 SE 15 24 8 13 1016.2 - 0.0
09/08:45pm 17.4 15.0 10.2 62 3.8 SE 13 22 7 12 1016.0 - 0.0
09/08:30pm 17.7 15.3 10.1 61 4.1 SE 13 22 7 12 1015.6 - 0.0
09/08:15pm 17.9 15.1 10.1 60 4.2 SE 15 28 8 15 1015.3 - 0.0
09/08:00pm 18.2 15.1 10.3 60 4.2 SE 17 28 9 15 1015.0 - 0.0
09/07:45pm 18.5 13.8 10.5 59 4.3 ESE 26 35 14 19 1014.6 - 0.0
09/07:30pm 18.7 14.9 11.0 61 4.2 SE 22 35 12 19 1014.4 - 0.0
09/07:15pm 19.0 15.2 11.2 60 4.3 SE 22 33 12 18 1014.0 - 0.0
09/07:00pm 19.2 15.1 11.4 60 4.3 ESE 24 33 13 18 1013.4 - 0.0
09/06:45pm 19.4 14.9 11.4 60 4.4 ESE 26 39 14 21 1013.1 - 0.0
09/06:30pm 19.9 16.3 11.8 59 4.5 SE 22 35 12 19 1012.6 - 0.0
09/06:15pm 20.1 16.5 11.9 59 4.6 SE 22 30 12 16 1012.2 - 0.0
09/06:00pm 20.6 17.7 12.3 59 4.7 ESE 19 26 10 14 1011.9 - 0.0
09/05:45pm 20.8 17.7 12.3 58 4.8 ESE 20 30 11 16 1011.5 - 0.0
09/05:30pm 21.0 18.1 12.3 57 4.9 SE 19 37 10 20 1011.3 - 0.0
09/05:15pm 20.9 17.8 12.3 58 4.9 ESE 20 30 11 16 1011.1 - 0.0
09/05:00pm 21.2 17.0 12.5 57 4.9 ESE 26 35 14 19 1010.8 - 0.0
09/04:45pm 22.4 19.5 12.2 52 5.8 ESE 19 30 10 16 1010.5 - 0.0
09/04:30pm 23.0 21.4 11.6 48 6.4 ESE 11 19 6 10 1010.3 - 0.0
09/04:15pm 23.9 19.8 8.7 38 8.2 S 20 43 11 23 1010.2 - 0.0
09/04:00pm 25.0 19.1 -0.5 18 11.7 WSW 20 32 11 17 1009.9 - 0.0
09/03:45pm 25.0 19.4 -0.3 19 11.7 SW 19 39 10 21 1009.7 - 0.0
09/03:30pm 25.1 19.3 -0.4 18 11.7 SW 20 39 11 21 1009.7 - 0.0
09/03:15pm 24.8 18.2 -0.4 19 11.6 WSW 24 35 13 19 1009.7 - 0.0
09/03:00pm 25.1 19.3 -0.1 19 11.7 SW 20 39 11 21 1009.6 - 0.0
09/02:45pm 24.8 17.8 -0.7 18 11.6 WSW 26 43 14 23 1009.6 - 0.0
09/02:30pm 24.2 18.6 0.2 20 11.1 WSW 19 35 10 19 1009.6 - 0.0
09/02:15pm 24.2 17.3 0.4 21 11.0 WSW 26 43 14 23 1009.7 - 0.0
09/02:00pm 23.8 17.0 0.6 21 10.8 W 26 44 14 24 1009.5 - 0.0
09/01:45pm 23.8 17.4 0.7 22 10.7 SW 24 43 13 23 1009.5 - 0.0
09/01:30pm 23.5 16.9 1.9 24 10.2 WSW 26 43 14 23 1009.5 - 0.0
09/01:15pm 23.2 17.1 3.0 26 9.8 W 24 44 13 24 1009.4 - 0.0
09/01:00pm 22.9 16.0 2.8 26 9.7 WSW 28 43 15 23 1009.4 - 0.0
09/12:45pm 22.9 17.0 3.7 28 9.4 WSW 24 43 13 23 1009.3 - 0.0
09/12:30pm 22.7 15.7 3.9 29 9.2 WSW 30 52 16 28 1009.4 - 0.0
09/12:15pm 22.2 15.7 4.5 31 8.7 WSW 28 44 15 24 1009.3 - 0.0
09/12:00pm 22.0 14.8 5.1 33 8.4 WSW 32 52 17 28 1009.2 - 0.0
09/11:45am 22.2 15.9 5.8 34 8.3 WSW 28 44 15 24 1009.1 - 0.0
09/11:30am 21.6 14.0 5.6 35 8.0 WSW 35 54 19 29 1009.0 - 0.0
09/11:15am 21.9 14.9 6.1 36 8.0 WSW 32 54 17 29 1008.8 - 0.0
09/11:00am 21.6 15.0 6.2 36 7.8 WSW 30 46 16 25 1008.7 - 0.0
09/10:45am 21.5 15.0 6.6 38 7.6 W 30 44 16 24 1008.6 - 0.0
09/10:30am 20.8 14.3 6.3 39 7.3 WSW 30 43 16 23 1008.5 - 0.0
09/10:15am 20.5 13.5 6.2 39 7.2 WSW 32 48 17 26 1008.2 - 0.0
09/10:00am 20.6 13.5 6.3 39 7.2 WSW 33 52 18 28 1008.0 - 0.0
09/09:45am 19.9 11.6 6.3 41 6.8 WSW 39 57 21 31 1008.0 - 0.0
09/09:30am 19.5 11.7 6.5 42 6.6 WSW 37 57 20 31 1007.8 - 0.0
09/09:15am 19.3 12.2 6.6 43 6.4 WSW 33 57 18 31 1007.9 - 0.0
09/09:00am 18.8 12.0 6.7 45 6.1 WSW 32 54 17 29 1007.8 - 0.0
09/08:45am 18.5 12.0 6.7 46 5.9 WSW 30 50 16 27 1007.9 - 0.0
09/08:30am 18.4 11.0 6.8 46 5.8 SW 35 57 19 31 1007.8 - 0.0
09/08:15am 18.0 10.9 6.5 47 5.7 WSW 33 52 18 28 1007.5 - 0.0
09/08:00am 17.9 11.4 6.5 47 5.7 WSW 30 44 16 24 1007.2 - 0.0
09/07:45am 17.7 10.8 6.6 48 5.5 WSW 32 50 17 27 1007.0 - 0.0
09/07:30am 17.6 11.9 6.7 48 5.4 SW 26 43 14 23 1007.1 - 0.0
09/07:15am 17.4 12.8 6.5 48 5.4 WSW 20 30 11 16 1006.8 - 0.0
09/07:00am 17.2 13.2 6.6 49 5.3 WSW 17 26 9 14 1006.4 - 0.0
09/06:45am 16.9 12.9 6.7 51 5.1 WSW 17 26 9 14 1006.2 - 0.0
09/06:30am 16.9 12.9 6.7 51 5.1 WSW 17 33 9 18 1005.9 - 0.0
09/06:15am 16.9 12.3 6.7 51 5.1 WSW 20 32 11 17 1005.9 - 0.0
09/06:00am 16.8 11.9 6.9 52 4.9 WSW 22 37 12 20 1005.6 - 0.0
09/05:45am 16.9 11.7 7.3 53 4.8 WSW 24 39 13 21 1005.3 - 0.0
09/05:30am 16.2 12.1 7.7 57 4.3 WSW 19 33 10 18 1005.0 - 0.0
09/05:15am 16.5 13.5 7.9 57 4.4 WSW 13 22 7 12 1004.6 - 0.0
09/05:00am 16.7 13.4 8.0 56 4.4 WSW 15 24 8 13 1004.3 - 0.0
09/04:45am 16.5 13.6 8.1 57 4.3 SW 13 20 7 11 1004.2 - 0.0
09/04:30am 16.7 14.2 8.1 57 4.4 SW 11 17 6 9 1004.0 - 0.0
09/04:15am 17.0 14.5 8.0 55 4.6 SW 11 17 6 9 1003.8 - 0.0
09/04:00am 17.4 14.5 8.1 54 4.8 SW 13 20 7 11 1003.6 - 0.0
09/03:45am 17.6 14.3 8.0 53 4.9 SW 15 22 8 12 1003.5 - 0.0
09/03:30am 18.0 13.9 7.9 51 5.2 SW 19 30 10 16 1003.3 - 0.0
09/03:15am 18.3 13.6 7.8 50 5.4 SW 22 41 12 22 1002.9 - 0.0
09/03:00am 18.5 15.0 7.4 48 5.7 SW 15 24 8 13 1002.7 - 0.0
09/02:45am 18.9 12.9 7.1 46 6.0 SW 28 44 15 24 1002.3 - 0.0
09/02:30am 19.1 13.8 6.7 44 6.3 SW 24 37 13 20 1001.9 - 0.0
09/02:15am 19.2 14.8 6.7 44 6.3 SW 19 32 10 17 1001.7 - 0.0
09/02:00am 19.6 15.0 6.7 43 6.5 SW 20 37 11 20 1001.7 - 0.0
09/01:45am 19.8 15.5 6.9 43 6.6 SW 19 33 10 18 1001.3 - 0.0
09/01:30am 20.1 15.7 7.5 44 6.5 WSW 20 43 11 23 1000.9 - 0.0
09/01:15am 20.0 15.8 8.2 46 6.2 WSW 20 52 11 28 1000.5 - 0.0
09/01:00am 20.5 15.4 9.1 48 6.1 WSW 26 43 14 23 1000.1 - 0.0
09/12:45am 21.0 13.7 10.3 50 5.8 W 39 63 21 34 999.8 - 0.0
09/12:30am 22.4 14.6 14.0 59 4.9 WSW 48 69 26 37 999.2 - 0.0
09/12:15am 24.1 19.9 16.1 61 4.9 WSW 33 48 18 26 998.8 - 0.0
09/12:00am 24.3 22.7 16.1 60 5.0 WSW 19 39 10 21 998.9 - 0.0
 
Date/Time
EDT
Temp
°C
App
Temp
°C
Dew
Point
°C
Rel
Hum
%
Delta-T
°C
Wind Press
QNH
hPa
Press
MSL
hPa
Rain since
9am
mm
Dir  Spd
km/h
Gust
km/h
Spd
kts
Gust
kts
08/11:45pm 24.1 24.0 16.0 60 4.9 WNW 11 17 6 9 998.4 - 0.0
08/11:30pm 24.7 24.6 15.9 58 5.4 WNW 11 17 6 9 998.0 - 0.0
08/11:15pm 25.1 24.6 16.0 57 5.6 W 13 20 7 11 998.2 - 0.0
08/11:00pm 25.3 23.7 16.1 56 5.7 WSW 19 32 10 17 998.6 - 0.0
08/10:45pm 25.4 23.6 15.9 55 5.8 WSW 20 32 11 17 998.8 - 0.0
08/10:30pm 26.1 23.3 15.4 51 6.5 WSW 24 43 13 23 998.8 - 0.0
08/10:15pm 26.3 23.9 15.3 50 6.7 SW 22 35 12 19 998.8 - 0.0
08/10:00pm 26.6 23.9 15.5 50 6.8 SW 24 35 13 19 998.9 - 0.0
08/09:45pm 26.8 24.6 16.0 51 6.7 SW 22 39 12 21 998.6 - 0.0
08/09:30pm 26.9 24.7 18.7 60 5.3 SW 28 41 15 22 998.5 - 0.0
08/09:15pm 26.4 27.0 21.4 74 3.3 SW 20 30 11 16 998.1 - 0.0
08/09:00pm 26.2 26.1 21.5 75 3.1 SW 24 44 13 24 997.9 - 0.0
08/08:45pm 26.1 28.5 21.5 76 3.1 ENE 11 39 6 21 996.4 - 0.0
08/08:30pm 26.3 29.1 21.5 75 3.2 NE 9 15 5 8 996.1 - 0.0
08/08:15pm 26.2 28.1 21.4 75 3.2 NE 13 20 7 11 995.8 - 0.0
08/08:00pm 26.4 27.5 21.3 73 3.4 NE 17 22 9 12 995.8 - 0.0
08/07:45pm 26.6 28.1 21.2 72 3.6 NE 15 20 8 11 996.0 - 0.0
08/07:30pm 27.1 28.2 21.2 70 3.9 NE 17 24 9 13 996.1 - 0.0
08/07:15pm 27.8 29.2 21.1 67 4.5 NE 15 24 8 13 996.2 - 0.0
08/07:00pm 28.1 29.4 20.8 64 4.9 NE 15 24 8 13 996.3 - 0.0
08/06:45pm 27.7 28.4 20.5 65 4.8 NE 17 26 9 14 996.3 - 0.0
08/06:30pm 28.0 28.4 20.9 65 4.7 NE 20 32 11 17 996.3 - 0.0
08/06:15pm 28.2 27.5 21.0 65 4.8 NE 26 41 14 22 996.3 - 0.0
08/06:00pm 28.7 28.5 21.2 64 5.0 NE 24 39 13 21 996.3 - 0.0
08/05:45pm 28.9 29.4 21.2 63 5.2 NE 20 35 11 19 996.3 - 0.0
08/05:30pm 29.1 30.1 21.7 64 5.0 NE 19 24 10 13 996.5 - 0.0
08/05:15pm 28.4 29.0 21.4 66 4.7 ENE 20 30 11 16 996.6 - 0.0
08/05:00pm 28.5 27.9 21.2 64 4.9 NE 26 35 14 19 996.9 - 0.0
08/04:45pm 28.5 27.8 21.1 64 4.9 NE 26 35 14 19 997.2 - 0.0
08/04:30pm 28.5 27.7 20.8 63 5.1 ENE 26 39 14 21 997.5 - 0.0
08/04:15pm 28.5 27.2 20.6 62 5.2 NE 28 39 15 21 997.8 - 0.0
08/04:00pm 28.8 27.9 20.6 61 5.4 NE 26 43 14 23 998.0 - 0.0
08/03:45pm 29.3 27.9 20.5 59 5.8 NE 28 41 15 22 998.3 - 0.0
08/03:30pm 28.8 27.7 20.2 59 5.7 NE 26 39 14 21 998.7 - 0.0
08/03:15pm 29.3 28.2 20.3 58 6.0 NE 26 41 14 22 999.1 - 0.0
08/03:00pm 29.1 29.2 20.4 59 5.8 NE 20 32 11 17 999.5 - 0.0
08/02:45pm 29.6 30.0 20.6 58 6.0 NE 19 32 10 17 999.9 - 0.0
08/02:30pm 29.2 29.5 20.7 60 5.7 NE 20 30 11 16 1000.3 - 0.0
08/02:15pm 28.5 28.9 20.6 62 5.2 ENE 19 30 10 16 1000.5 - 0.0
08/02:00pm 28.2 29.0 20.6 63 5.0 ENE 17 30 9 16 1000.9 - 0.0
08/01:45pm 28.5 29.2 20.5 62 5.3 ENE 17 28 9 15 1001.3 - 0.0
08/01:30pm 28.7 29.3 20.3 60 5.6 ENE 17 24 9 13 1001.7 - 0.0
08/01:15pm 28.6 29.3 20.5 61 5.4 ENE 17 24 9 13 1002.2 - 0.0
08/01:00pm 28.8 29.0 20.1 59 5.7 NE 19 26 10 14 1002.6 - 0.0
08/12:45pm 28.4 28.9 20.0 60 5.5 NE 17 28 9 15 1002.9 - 0.0
08/12:30pm 27.9 28.2 19.6 60 5.4 NE 17 26 9 14 1003.3 - 0.0
08/12:15pm 27.6 28.1 19.3 60 5.4 NE 15 22 8 12 1003.7 - 0.0
08/12:00pm 27.3 27.6 18.8 59 5.5 NNE 15 26 8 14 1004.0 - 0.0
08/11:45am 27.4 26.9 18.7 59 5.6 NNE 19 32 10 17 1004.4 - 0.0
08/11:30am 26.9 27.5 18.7 60 5.3 NNE 13 24 7 13 1004.8 - 0.0
08/11:15am 26.2 26.8 18.6 63 4.9 NNE 13 24 7 13 1005.2 - 0.0
08/11:00am 26.0 26.9 18.4 63 4.9 N 11 20 6 11 1005.6 - 0.0
08/10:45am 25.5 26.4 18.5 65 4.5 - 11 20 6 11 1006.0 - 0.0
08/10:30am 24.7 25.5 18.2 67 4.1 N 11 17 6 9 1006.3 - 0.0
08/10:15am 24.3 25.5 18.3 69 3.8 N 9 19 5 10 1006.6 - 0.0
08/10:00am 23.7 24.4 18.0 70 3.6 N 11 20 6 11 1006.9 - 0.0
08/09:45am 23.3 24.8 18.1 72 3.3 N 7 15 4 8 1007.4 - 0.0
08/09:30am 22.7 23.7 17.8 74 3.1 N 9 15 5 8 1007.8 - 0.0
08/09:15am 22.2 23.6 17.7 75 2.8 NNW 7 15 4 8 1008.1 - 0.0
08/09:00am 21.7 23.0 17.6 77 2.5 N 7 15 4 8 1008.5 - 0.0
08/08:45am 21.2 22.4 17.3 78 2.4 NNW 7 11 4 6 1008.8 - 0.0
08/08:30am 21.1 22.3 17.4 79 2.3 NNW 7 13 4 7 1009.0 - 0.0
08/08:15am 20.8 22.3 17.5 81 2.0 NNW 6 13 3 7 1009.1 - 0.0
08/08:00am 20.3 21.5 17.3 83 1.8 NNW 7 13 4 7 1009.3 - 0.0
08/07:45am 19.9 20.7 17.2 84 1.7 N 9 15 5 8 1009.4 - 0.0
08/07:30am 19.5 20.2 17.1 86 1.5 N 9 17 5 9 1009.5 - 0.0
08/07:15am 19.2 19.5 17.0 87 1.3 N 11 15 6 8 1009.5 - 0.0
08/07:00am 18.8 19.1 17.1 90 1.0 N 11 15 6 8 1009.5 - 0.0
08/06:45am 18.3 18.8 16.6 90 1.0 - 9 13 5 7 1009.6 - 0.0
08/06:30am 18.0 18.1 16.4 90 1.0 N 11 15 6 8 1009.6 - 0.0
08/06:15am 17.9 18.6 16.2 90 1.0 - 7 11 4 6 1009.7 - 0.0
08/06:00am 18.1 18.9 16.3 89 1.1 N 7 11 4 6 1009.8 - 0.0
08/05:45am 18.4 18.8 16.4 88 1.2 N 9 15 5 8 1009.8 - 0.0
08/05:30am 18.6 18.7 16.5 87 1.3 - 11 17 6 9 1009.8 - 0.0
08/05:15am 18.9 19.1 16.8 87 1.3 - 11 17 6 9 1009.9 - 0.0
08/05:00am 19.0 19.6 16.9 88 1.3 N 9 17 5 9 1010.0 - 0.0
08/04:45am 19.0 19.6 16.9 88 1.3 N 9 15 5 8 1010.1 - 0.0
08/04:30am 19.1 19.4 17.0 88 1.3 N 11 15 6 8 1010.2 - 0.0
08/04:15am 19.1 20.2 17.0 88 1.3 N 7 11 4 6 1010.3 - 0.0
08/04:00am 19.1 20.4 17.0 88 1.3 N 6 9 3 5 1010.5 - 0.0
08/03:45am 19.2 20.3 17.0 87 1.3 - 7 13 4 7 1010.6 - 0.0
08/03:30am 19.2 19.9 17.0 87 1.3 N 9 17 5 9 1011.0 - 0.0
08/03:15am 19.2 19.5 17.0 87 1.3 N 11 20 6 11 1011.2 - 0.0
08/03:00am 19.2 19.5 17.0 87 1.3 N 11 19 6 10 1011.4 - 0.0
08/02:45am 19.2 19.5 17.0 87 1.3 N 11 20 6 11 1011.7 - 0.0
08/02:30am 19.2 19.5 16.9 86 1.4 NNW 11 17 6 9 1011.8 - 0.0
08/02:15am 19.2 19.5 16.9 86 1.4 NNW 11 20 6 11 1012.0 - 0.0
08/02:00am 19.3 19.2 16.9 86 1.5 NNW 13 20 7 11 1012.2 - 0.0
08/01:45am 19.4 20.1 17.0 86 1.5 NNW 9 17 5 9 1012.4 - 0.0

Latest Capital City Observations: Canberra | Sydney | Melbourne | Brisbane | Adelaide | Perth | Hobart | Darwin

Other Formats:

Comma delimited format used in spreadsheet applications
http://www.bom.gov.au/fwo/IDN60901/IDN60901.95757.axf

JavaScript Object Notation format (JSON) in row-major order
http://www.bom.gov.au/fwo/IDN60901/IDN60901.95757.json